CYAZ/YAZ METAR and TAF weather

Enter ICAO airport designator
Station Type Date Time Source
CYAZ METAR 2019/10/21 01:00 UTC NOAA

CYAZ 210100Z 28004KT 260V340 12SM FEW025TCU BKN052 11/09 A2992 RMK TCU2SC3 LAST STFD OBS/NEXT 211300UTC SLP132


Station Type Date Time Source
CYAZ Decoded METAR 2019/10/21 01:00 UTC NOAA

Tofino Airport, Canada (CYAZ) 49-05N 125-46W
Oct 20, 2019 - 09:00 PM EDT / 2019.10.21 0100 UTC
Wind: from the W (280 degrees) at 5 MPH (4 KT) (direction variable):0
Visibility: 12 mile(s):0
Sky conditions: mostly cloudy
Weather: Towering cumulus clouds observed
Temperature: 51 F (11 C)
Dew Point: 48 F (9 C)
Relative Humidity: 87%
Pressure (altimeter): 29.92 in. Hg (1013 hPa)
ob: CYAZ 210100Z 28004KT 260V340 12SM FEW025TCU BKN052 11/09 A2992 RMK TCU2SC3 LAST STFD OBS/NEXT 211300UTC SLP132
cycle: 1

Station Type Date Time Source
CYAZ TAF 2019/10/20 20:09 UTC NOAA

TAF
AMD TAF
AMD CYAZ 202007Z 2020/2101 VRB03KT P6SM SCT008 SCT015 SCT040
TEMPO 2020/2021 5SM -SHRA BR SCT008 BKN015
FM202100 29015G25KT P6SM SCT012 SCT025
TEMPO 2021/2101 5SM -SHRA BR BKN012 OVC025
BECMG 2021/2023 29012KT
RMK NXT FCST WILL BE ISSUED AT 211445Z

Example: see airport list